Time;durP1;ratioP1;P1;durP2;ratioP2;P2;SDS_P1;SDS_P2;PMS_P1;PMS_P2;Temp;Humidity;BMP_temperature;BMP_pressure;BME280_temperature;BME280_humidity;BME280_pressure;Samples;Min_cycle;Max_cycle;Signal;HPM_P1;HPM_P2
2022/11/19 00:02:31;;;;;;;;;;;6.40;99.90;;;;;;8432546;28;19936;-80
2022/11/19 00:16:39;;;;;;;;;;;6.20;99.90;;;;;;8421649;28;19936;-79
2022/11/19 00:20:41;;;;;;;;;;;6.10;99.90;;;;;;8400735;28;19932;-80
2022/11/19 00:24:43;;;;;;;;;;;6.10;99.90;;;;;;8425067;28;19924;-79
2022/11/19 00:28:44;;;;;;;;;;;6.00;99.90;;;;;;8425118;28;19982;-80
2022/11/19 00:32:46;;;;;;;;;;;6.00;99.90;;;;;;8409229;28;20692;-80
2022/11/19 00:36:48;;;;;;;;;;;6.00;99.90;;;;;;8429896;28;19927;-80
2022/11/19 00:40:50;;;;;;;;;;;6.00;99.90;;;;;;8407564;28;19974;-80
2022/11/19 00:44:51;;;;;;;;;;;6.00;99.90;;;;;;8399914;28;20395;-79
2022/11/19 00:48:54;;;;;;;;;;;6.00;99.90;;;;;;8396506;28;20330;-81
2022/11/19 00:52:56;;;;;;;;;;;6.00;99.90;;;;;;8407323;28;19978;-80
2022/11/19 00:56:57;;;;;;;;;;;5.90;99.90;;;;;;8414529;28;19924;-80
2022/11/19 01:00:59;;;;;;;;;;;5.90;99.90;;;;;;8403685;28;19933;-80
2022/11/19 01:05:01;;;;;;;;;;;5.80;99.90;;;;;;8418531;28;19956;-79
2022/11/19 01:09:02;;;;;;;;;;;5.80;99.90;;;;;;8409249;28;19934;-79
2022/11/19 01:17:24;;;;;;;;;;;5.80;99.90;;;;;;8419162;28;19924;-80
2022/11/19 01:21:28;;;;;;;;;;;5.70;99.90;;;;;;8424424;28;20007;-79
2022/11/19 01:25:29;;;;;;;;;;;5.70;99.90;;;;;;8414357;28;19924;-79
2022/11/19 01:29:31;;;;;;;;;;;5.70;99.90;;;;;;8423798;28;19938;-79
2022/11/19 01:33:34;;;;;;;;;;;5.70;99.90;;;;;;8428860;28;19943;-80
2022/11/19 01:37:35;;;;;;;;;;;5.70;99.90;;;;;;8421060;28;19928;-80
2022/11/19 01:41:37;;;;;;;;;;;5.70;99.90;;;;;;8402210;28;19967;-79
2022/11/19 01:45:39;;;;;;;;;;;5.70;99.90;;;;;;8423235;28;19959;-79
2022/11/19 01:49:40;;;;;;;;;;;5.70;99.90;;;;;;8407978;28;19924;-80
2022/11/19 01:53:43;;;;;;;;;;;5.60;99.90;;;;;;8417375;28;20035;-80
2022/11/19 01:57:47;;;;;;;;;;;5.60;99.90;;;;;;8413823;28;20538;-80
2022/11/19 02:01:49;;;;;;;;;;;5.50;99.90;;;;;;8426019;28;19924;-80
2022/11/19 02:05:50;;;;;;;;;;;5.50;99.90;;;;;;8418774;28;19932;-78
2022/11/19 02:09:52;;;;;;;;;;;5.40;99.90;;;;;;8417245;28;19927;-79
2022/11/19 02:14:12;;;;;;;;;;;5.40;99.90;;;;;;8422580;28;19970;-79
2022/11/19 02:18:20;;;;;;;;;;;5.40;99.90;;;;;;8414397;28;19940;-80
2022/11/19 02:22:40;;;;;;;;;;;5.30;99.90;;;;;;8425539;28;19924;-79
2022/11/19 02:26:45;;;;;;;;;;;5.30;99.90;;;;;;8433405;28;19924;-79
2022/11/19 02:30:51;;;;;;;;;;;5.30;99.90;;;;;;8417419;28;19960;-79
2022/11/19 02:35:13;;;;;;;;;;;5.20;99.90;;;;;;8401700;28;19924;-79
2022/11/19 02:39:22;;;;;;;;;;;5.20;99.90;;;;;;8409575;28;19936;-79
2022/11/19 02:43:37;;;;;;;;;;;5.20;99.90;;;;;;8430414;28;20386;-80
2022/11/19 02:47:48;;;;;;;;;;;5.20;99.90;;;;;;8421064;28;19928;-79
2022/11/19 02:51:50;;;;;;;;;;;5.20;99.90;;;;;;8419197;28;20339;-79
2022/11/19 02:56:10;;;;;;;;;;;5.10;99.90;;;;;;8423469;28;19960;-79
2022/11/19 03:04:32;;;;;;;;;;;5.10;99.90;;;;;;8428982;28;19923;-79
2022/11/19 03:08:34;;;;;;;;;;;5.00;99.90;;;;;;8413918;28;19983;-80
2022/11/19 03:12:36;;;;;;;;;;;5.00;99.90;;;;;;8432409;28;19982;-78
2022/11/19 03:16:42;;;;;;;;;;;4.90;99.90;;;;;;8392985;28;19932;-80
2022/11/19 03:20:46;;;;;;;;;;;4.90;99.90;;;;;;8423387;28;19932;-80
2022/11/19 03:24:55;;;;;;;;;;;4.80;99.90;;;;;;8427645;28;19924;-79
2022/11/19 03:28:59;;;;;;;;;;;4.80;99.90;;;;;;8427020;28;19924;-79
2022/11/19 03:33:03;;;;;;;;;;;4.80;99.90;;;;;;8424197;28;19968;-79
2022/11/19 03:37:07;;;;;;;;;;;4.80;99.90;;;;;;8423169;28;19978;-79
2022/11/19 03:41:10;;;;;;;;;;;4.80;99.90;;;;;;8404707;28;19932;-80
2022/11/19 03:45:14;;;;;;;;;;;4.80;99.90;;;;;;8433591;28;19924;-79
2022/11/19 03:49:17;;;;;;;;;;;4.70;99.90;;;;;;8408911;28;19942;-80
2022/11/19 03:53:20;;;;;;;;;;;4.70;99.90;;;;;;8395640;28;20059;-80
2022/11/19 03:57:23;;;;;;;;;;;4.60;99.90;;;;;;8417811;28;19929;-80
2022/11/19 04:01:25;;;;;;;;;;;4.60;99.90;;;;;;8421068;28;20275;-80
2022/11/19 04:05:27;;;;;;;;;;;4.60;99.90;;;;;;8408543;28;19924;-80
2022/11/19 04:09:28;;;;;;;;;;;4.60;99.90;;;;;;8433486;28;20371;-80
2022/11/19 04:13:30;;;;;;;;;;;4.50;99.90;;;;;;8424800;28;19928;-79
2022/11/19 04:17:31;;;;;;;;;;;4.50;99.90;;;;;;8405425;28;19928;-79
2022/11/19 04:21:33;;;;;;;;;;;4.40;99.90;;;;;;8428752;28;19928;-80
2022/11/19 04:25:34;;;;;;;;;;;4.40;99.90;;;;;;8418784;28;19924;-80
2022/11/19 04:29:36;;;;;;;;;;;4.40;99.90;;;;;;8428541;28;19923;-79
2022/11/19 04:33:38;;;;;;;;;;;4.40;99.90;;;;;;8425445;28;19967;-79
2022/11/19 04:37:39;;;;;;;;;;;4.30;99.90;;;;;;8421799;28;20370;-79
2022/11/19 04:41:41;;;;;;;;;;;4.30;99.90;;;;;;8400509;28;19982;-79
2022/11/19 04:45:43;;;;;;;;;;;4.20;99.90;;;;;;8410585;28;19936;-80
2022/11/19 04:49:44;;;;;;;;;;;4.20;99.90;;;;;;8427470;28;19936;-79
2022/11/19 04:53:46;;;;;;;;;;;4.20;99.90;;;;;;8416820;28;19970;-79
2022/11/19 04:57:50;;;;;;;;;;;4.10;99.90;;;;;;8414685;28;19924;-79
2022/11/19 05:01:52;;;;;;;;;;;4.10;99.90;;;;;;8425886;28;19977;-79
2022/11/19 05:05:53;;;;;;;;;;;4.10;99.90;;;;;;8411669;28;20315;-80
2022/11/19 05:09:55;;;;;;;;;;;4.10;99.90;;;;;;8423551;28;19928;-79
2022/11/19 05:13:57;;;;;;;;;;;4.00;99.90;;;;;;8427802;28;19928;-79
2022/11/19 05:17:58;;;;;;;;;;;4.00;99.90;;;;;;8426143;28;19927;-79
2022/11/19 05:22:00;;;;;;;;;;;4.00;99.90;;;;;;8406299;28;20639;-79
2022/11/19 05:26:02;;;;;;;;;;;4.00;99.90;;;;;;8428307;28;19931;-80
2022/11/19 05:30:04;;;;;;;;;;;4.00;99.90;;;;;;8411195;28;19924;-79
2022/11/19 05:34:05;;;;;;;;;;;4.00;99.90;;;;;;8401462;28;19943;-80
2022/11/19 05:38:07;;;;;;;;;;;4.00;99.90;;;;;;8412114;28;19932;-79
2022/11/19 05:42:09;;;;;;;;;;;3.90;99.90;;;;;;8422487;28;19969;-79
2022/11/19 05:46:10;;;;;;;;;;;3.90;99.90;;;;;;8428302;28;19979;-79
2022/11/19 05:50:12;;;;;;;;;;;3.80;99.90;;;;;;8408674;28;19924;-78
2022/11/19 05:54:13;;;;;;;;;;;3.80;99.90;;;;;;8404012;28;20310;-80
2022/11/19 05:58:15;;;;;;;;;;;3.80;99.90;;;;;;8419942;28;19924;-79
2022/11/19 06:02:17;;;;;;;;;;;3.70;99.90;;;;;;8411447;28;19963;-79
2022/11/19 06:06:19;;;;;;;;;;;3.70;99.90;;;;;;8422914;28;19974;-78
2022/11/19 06:10:21;;;;;;;;;;;3.70;99.90;;;;;;8421460;28;19924;-79
2022/11/19 06:14:23;;;;;;;;;;;3.60;99.90;;;;;;8416816;28;19924;-79
2022/11/19 06:18:25;;;;;;;;;;;3.60;99.90;;;;;;8388534;28;19983;-79
2022/11/19 06:22:26;;;;;;;;;;;3.60;99.90;;;;;;8407527;28;19924;-79
2022/11/19 06:26:28;;;;;;;;;;;3.60;99.90;;;;;;8423530;28;20422;-79
2022/11/19 06:30:30;;;;;;;;;;;3.60;99.90;;;;;;8421497;28;19947;-80
2022/11/19 06:34:31;;;;;;;;;;;3.50;99.90;;;;;;8422904;28;20385;-79
2022/11/19 06:38:33;;;;;;;;;;;3.50;99.90;;;;;;8410542;28;19923;-79
2022/11/19 06:42:34;;;;;;;;;;;3.40;99.90;;;;;;8404475;28;19928;-79
2022/11/19 06:46:37;;;;;;;;;;;3.40;99.90;;;;;;8412579;28;19928;-79
2022/11/19 06:50:38;;;;;;;;;;;3.40;99.90;;;;;;8417424;28;20382;-79
2022/11/19 06:54:40;;;;;;;;;;;3.30;99.90;;;;;;8405108;28;20458;-80
2022/11/19 06:58:43;;;;;;;;;;;3.30;99.90;;;;;;8427191;28;20518;-79
2022/11/19 07:02:46;;;;;;;;;;;3.30;99.90;;;;;;8426217;28;19977;-79
2022/11/19 07:06:47;;;;;;;;;;;3.20;99.90;;;;;;8436574;28;19931;-79
2022/11/19 07:10:49;;;;;;;;;;;3.20;99.90;;;;;;8408822;28;20413;-79
2022/11/19 07:14:51;;;;;;;;;;;3.10;99.90;;;;;;8422567;28;19974;-79
2022/11/19 07:18:53;;;;;;;;;;;3.10;99.90;;;;;;8432725;28;19924;-79
2022/11/19 07:22:54;;;;;;;;;;;3.10;99.90;;;;;;8423587;28;19924;-79
2022/11/19 07:26:59;;;;;;;;;;;3.10;99.90;;;;;;8399050;28;19932;-79
2022/11/19 07:36:06;;;;;;;;;;;3.10;99.90;;;;;;8418841;28;20441;-79
2022/11/19 07:40:09;;;;;;;;;;;3.10;99.90;;;;;;8407563;28;19929;-79
2022/11/19 07:44:11;;;;;;;;;;;3.00;99.90;;;;;;8402709;28;19928;-79
2022/11/19 07:48:13;;;;;;;;;;;3.10;99.90;;;;;;8404423;28;19924;-80
2022/11/19 07:52:15;;;;;;;;;;;3.10;99.90;;;;;;8398687;28;19928;-79
2022/11/19 07:56:17;;;;;;;;;;;3.10;99.90;;;;;;8414011;28;20054;-79
2022/11/19 08:00:19;;;;;;;;;;;3.10;99.90;;;;;;8420010;28;19977;-79
2022/11/19 08:04:21;;;;;;;;;;;3.10;99.90;;;;;;8413581;28;19938;-80
2022/11/19 08:08:25;;;;;;;;;;;3.20;99.90;;;;;;8419513;28;19924;-78
2022/11/19 08:12:27;;;;;;;;;;;3.20;99.90;;;;;;8426920;28;20403;-79
2022/11/19 08:20:51;;;;;;;;;;;3.30;99.90;;;;;;8420112;28;19928;-79
2022/11/19 08:24:53;;;;;;;;;;;3.30;99.90;;;;;;8418373;28;19928;-79
2022/11/19 08:28:54;;;;;;;;;;;3.30;99.90;;;;;;8408250;28;19924;-79
2022/11/19 08:32:56;;;;;;;;;;;3.30;99.90;;;;;;8422771;28;20308;-79
2022/11/19 08:36:58;;;;;;;;;;;3.20;99.90;;;;;;8397703;28;20042;-79
2022/11/19 08:45:21;;;;;;;;;;;3.20;99.90;;;;;;8431908;28;20005;-79
2022/11/19 08:49:22;;;;;;;;;;;3.20;99.90;;;;;;8426699;28;20397;-79
2022/11/19 08:53:24;;;;;;;;;;;3.20;99.90;;;;;;8431950;28;19932;-78
2022/11/19 08:57:26;;;;;;;;;;;3.20;99.90;;;;;;8428213;28;20344;-79
2022/11/19 09:01:28;;;;;;;;;;;3.10;99.90;;;;;;8429293;28;19928;-79
2022/11/19 09:05:29;;;;;;;;;;;3.10;99.90;;;;;;8429867;28;19924;-79
2022/11/19 09:09:31;;;;;;;;;;;3.00;99.90;;;;;;8431997;28;19928;-80
2022/11/19 09:13:33;;;;;;;;;;;2.90;99.90;;;;;;8419936;28;19923;-79
2022/11/19 09:17:35;;;;;;;;;;;2.90;99.90;;;;;;8412151;28;19934;-79
2022/11/19 09:21:36;;;;;;;;;;;2.80;99.90;;;;;;8425060;28;20391;-79
2022/11/19 09:25:38;;;;;;;;;;;2.80;99.90;;;;;;8425061;28;19935;-79
2022/11/19 09:29:40;;;;;;;;;;;2.80;99.90;;;;;;8414140;28;19928;-79
2022/11/19 09:33:42;;;;;;;;;;;2.80;99.90;;;;;;8422372;28;19928;-78
2022/11/19 09:37:44;;;;;;;;;;;2.90;99.90;;;;;;8413091;28;20042;-80
2022/11/19 09:41:54;;;;;;;;;;;3.00;99.90;;;;;;8409927;28;19924;-79
2022/11/19 09:45:58;;;;;;;;;;;3.20;99.90;;;;;;8422448;28;19931;-79
2022/11/19 09:50:00;;;;;;;;;;;3.30;99.90;;;;;;8401989;28;20030;-79
2022/11/19 09:54:04;;;;;;;;;;;3.50;99.90;;;;;;8416371;28;19928;-79
2022/11/19 09:58:11;;;;;;;;;;;3.70;99.90;;;;;;8419120;28;19935;-79
2022/11/19 10:02:17;;;;;;;;;;;3.80;99.90;;;;;;8417359;28;19928;-79
2022/11/19 10:06:29;;;;;;;;;;;4.00;99.90;;;;;;8401490;28;19931;-79
2022/11/19 10:10:53;;;;;;;;;;;4.10;99.90;;;;;;8413741;28;20015;-79
2022/11/19 10:15:10;;;;;;;;;;;4.20;99.90;;;;;;8397713;28;20014;-79
2022/11/19 10:19:27;;;;;;;;;;;4.30;99.90;;;;;;8413195;28;20414;-79
2022/11/19 10:23:41;;;;;;;;;;;4.30;99.90;;;;;;8423276;28;19931;-79
2022/11/19 10:27:48;;;;;;;;;;;4.50;99.90;;;;;;8423507;28;19924;-79
2022/11/19 10:31:50;;;;;;;;;;;4.70;99.90;;;;;;8433059;28;19924;-79
2022/11/19 10:36:15;;;;;;;;;;;5.10;99.90;;;;;;8407749;28;20046;-79
2022/11/19 10:40:19;;;;;;;;;;;5.60;99.90;;;;;;8434430;28;19979;-78
2022/11/19 10:44:41;;;;;;;;;;;6.00;99.90;;;;;;8415102;28;20355;-78
2022/11/19 10:48:46;;;;;;;;;;;6.50;99.90;;;;;;8413880;28;19931;-80
2022/11/19 10:52:55;;;;;;;;;;;7.30;99.90;;;;;;8400003;28;20410;-79
2022/11/19 10:56:57;;;;;;;;;;;7.80;99.90;;;;;;8407193;28;19932;-79
2022/11/19 11:01:01;;;;;;;;;;;8.60;99.90;;;;;;8391726;28;19950;-79
2022/11/19 11:05:05;;;;;;;;;;;9.30;99.90;;;;;;8393758;28;19983;-79
2022/11/19 11:09:12;;;;;;;;;;;9.80;99.90;;;;;;8402204;28;20434;-79
2022/11/19 11:17:37;;;;;;;;;;;10.60;99.90;;;;;;8407741;28;24721;-78
2022/11/19 11:21:42;;;;;;;;;;;9.90;99.90;;;;;;8408022;28;19931;-79
2022/11/19 11:26:03;;;;;;;;;;;9.30;99.90;;;;;;8417755;28;20865;-72
2022/11/19 11:30:11;;;;;;;;;;;9.70;99.90;;;;;;8380325;28;19947;-71
2022/11/19 11:34:26;;;;;;;;;;;10.30;99.90;;;;;;8388290;28;19928;-71
2022/11/19 11:38:28;;;;;;;;;;;11.10;99.90;;;;;;8371744;28;19969;-71
2022/11/19 11:42:30;;;;;;;;;;;11.60;99.90;;;;;;8378177;28;20394;-71
2022/11/19 11:51:38;;;;;;;;;;;12.20;99.90;;;;;;8403416;28;20597;-71
2022/11/19 11:55:40;;;;;;;;;;;11.50;99.90;;;;;;8404041;28;20616;-71
2022/11/19 11:59:41;;;;;;;;;;;10.40;99.90;;;;;;8387877;28;19928;-72
2022/11/19 12:03:53;;;;;;;;;;;9.40;99.90;;;;;;8390675;28;19936;-72
2022/11/19 12:08:03;;;;;;;;;;;8.60;99.90;;;;;;8392504;28;19932;-72
2022/11/19 12:12:16;;;;;;;;;;;8.00;99.90;;;;;;8407182;28;19938;-72
2022/11/19 12:16:25;;;;;;;;;;;7.50;99.90;;;;;;8404052;28;19932;-71
2022/11/19 12:20:36;;;;;;;;;;;7.20;99.90;;;;;;8383155;28;19931;-72
2022/11/19 12:25:04;;;;;;;;;;;7.00;99.90;;;;;;8383154;28;19932;-71
2022/11/19 12:29:14;;;;;;;;;;;7.00;99.90;;;;;;8374492;28;19934;-71
2022/11/19 12:33:35;;;;;;;;;;;6.90;99.90;;;;;;8382344;28;19947;-71
2022/11/19 12:37:42;;;;;;;;;;;6.80;99.90;;;;;;8384013;28;20023;-71
2022/11/19 12:41:44;;;;;;;;;;;6.70;99.90;;;;;;8381223;28;19936;-71
2022/11/19 12:45:55;;;;;;;;;;;6.70;99.90;;;;;;8381926;28;19954;-71
2022/11/19 12:50:01;;;;;;;;;;;7.00;99.90;;;;;;8382490;28;20390;-72
2022/11/19 12:54:06;;;;;;;;;;;7.70;99.90;;;;;;8374431;28;19929;-72
2022/11/19 12:58:07;;;;;;;;;;;7.90;99.90;;;;;;8387562;28;19962;-71
2022/11/19 13:02:24;;;;;;;;;;;7.90;99.90;;;;;;8385928;28;20411;-71
2022/11/19 13:06:29;;;;;;;;;;;7.70;99.90;;;;;;8391999;28;19967;-72
2022/11/19 13:10:34;;;;;;;;;;;7.70;99.90;;;;;;8395876;28;20019;-71
2022/11/19 13:14:36;;;;;;;;;;;7.70;99.90;;;;;;8392305;28;20431;-71
2022/11/19 13:18:39;;;;;;;;;;;7.60;99.90;;;;;;8392131;28;19946;-72
2022/11/19 13:22:46;;;;;;;;;;;7.50;99.90;;;;;;8384536;28;19935;-71
2022/11/19 13:26:48;;;;;;;;;;;7.50;99.90;;;;;;8391734;28;19924;-71
2022/11/19 13:30:51;;;;;;;;;;;7.60;99.90;;;;;;8394888;28;19964;-72
2022/11/19 13:35:19;;;;;;;;;;;7.60;99.90;;;;;;8372517;28;20651;-72
2022/11/19 13:39:27;;;;;;;;;;;7.60;99.90;;;;;;8374389;28;20734;-71
2022/11/19 13:47:53;;;;;;;;;;;7.40;99.90;;;;;;8391194;28;19924;-72
2022/11/19 13:52:02;;;;;;;;;;;7.30;99.90;;;;;;8395313;28;19924;-72
2022/11/19 13:56:04;;;;;;;;;;;7.30;99.90;;;;;;8388952;28;19939;-71
2022/11/19 14:00:06;;;;;;;;;;;7.30;99.90;;;;;;8378582;28;19971;-71
2022/11/19 14:04:30;;;;;;;;;;;7.30;99.90;;;;;;8397640;28;19938;-71
2022/11/19 14:08:39;;;;;;;;;;;7.30;99.90;;;;;;8379127;28;19991;-71
2022/11/19 14:12:46;;;;;;;;;;;7.40;99.90;;;;;;8375834;28;19937;-72
2022/11/19 14:30:07;;;;;;;;;;;7.30;99.90;;;;;;8392240;28;19928;-72
2022/11/19 14:34:24;;;;;;;;;;;7.40;99.90;;;;;;8390399;28;20471;-72
2022/11/19 14:38:36;;;;;;;;;;;7.80;99.90;;;;;;8388461;28;20125;-72
2022/11/19 14:44:07;;;;;;;;;;;8.50;99.90;;;;;;8361999;28;19932;-71
2022/11/19 14:47:21;;;;;;;;;;;9.30;99.90;;;;;;8359364;28;20019;-72
2022/11/19 14:51:28;;;;;;;;;;;10.20;99.90;;;;;;8358741;28;19931;-71
2022/11/19 14:55:32;;;;;;;;;;;10.70;99.90;;;;;;8360823;28;19932;-71
2022/11/19 14:59:35;;;;;;;;;;;10.80;99.90;;;;;;8362094;28;19928;-72
2022/11/19 15:03:37;;;;;;;;;;;10.90;99.90;;;;;;8357132;28;20311;-71
2022/11/19 15:07:40;;;;;;;;;;;11.00;99.90;;;;;;8361778;28;19936;-72
2022/11/19 15:11:54;;;;;;;;;;;10.70;99.90;;;;;;8363095;28;19987;-71
2022/11/19 15:16:15;;;;;;;;;;;10.40;99.90;;;;;;8351766;28;19936;-71
2022/11/19 15:20:25;;;;;;;;;;;9.80;99.90;;;;;;8360310;28;19928;-71
2022/11/19 15:24:36;;;;;;;;;;;9.10;99.90;;;;;;8369978;28;19924;-71
2022/11/19 15:28:43;;;;;;;;;;;8.50;99.90;;;;;;8363669;28;20784;-71
2022/11/19 15:33:03;;;;;;;;;;;7.90;99.90;;;;;;8364666;28;19944;-71
2022/11/19 15:37:11;;;;;;;;;;;7.30;99.90;;;;;;8371753;28;20480;-71
2022/11/19 15:41:13;;;;;;;;;;;6.90;99.90;;;;;;8372543;28;19932;-71
2022/11/19 15:45:17;;;;;;;;;;;6.60;99.90;;;;;;8381711;28;20438;-71
2022/11/19 15:49:21;;;;;;;;;;;6.30;99.90;;;;;;8391298;28;19935;-71
2022/11/19 15:53:23;;;;;;;;;;;6.10;99.90;;;;;;8392221;28;20273;-71
2022/11/19 15:57:25;;;;;;;;;;;5.90;99.90;;;;;;8385050;28;20042;-71
2022/11/19 16:01:28;;;;;;;;;;;5.60;99.90;;;;;;8371796;28;19959;-71
2022/11/19 16:05:31;;;;;;;;;;;5.50;99.90;;;;;;8392331;28;20284;-71
2022/11/19 16:09:33;;;;;;;;;;;5.30;99.90;;;;;;8386448;28;20397;-71
2022/11/19 16:17:55;;;;;;;;;;;5.10;99.90;;;;;;8384061;28;20022;-71
2022/11/19 16:22:00;;;;;;;;;;;4.90;99.90;;;;;;8382362;28;20027;-71
2022/11/19 16:26:02;;;;;;;;;;;4.80;99.90;;;;;;8382035;28;19932;-70
2022/11/19 16:30:04;;;;;;;;;;;4.80;99.90;;;;;;8377470;28;19990;-71
2022/11/19 16:34:10;;;;;;;;;;;4.70;99.90;;;;;;8387702;28;19928;-71
2022/11/19 16:38:22;;;;;;;;;;;4.60;99.90;;;;;;8384537;28;19967;-71
2022/11/19 16:42:27;;;;;;;;;;;4.50;99.90;;;;;;8367829;28;19935;-71
2022/11/19 16:46:29;;;;;;;;;;;4.40;99.90;;;;;;8383959;28;20525;-71
2022/11/19 16:50:32;;;;;;;;;;;4.30;99.90;;;;;;8393924;28;19943;-71
2022/11/19 16:54:49;;;;;;;;;;;4.10;99.90;;;;;;8368408;28;19936;-71
2022/11/19 16:58:55;;;;;;;;;;;4.00;99.90;;;;;;8369961;28;20023;-71
2022/11/19 17:02:57;;;;;;;;;;;3.90;99.90;;;;;;8388216;28;19943;-71
2022/11/19 17:06:58;;;;;;;;;;;3.60;99.90;;;;;;8373169;28;19928;-71
2022/11/19 17:15:43;;;;;;;;;;;3.40;99.90;;;;;;8382132;28;19925;-71
2022/11/19 17:19:44;;;;;;;;;;;3.40;99.90;;;;;;8396798;28;19939;-71
2022/11/19 17:23:47;;;;;;;;;;;3.40;99.90;;;;;;8384392;28;19966;-71
2022/11/19 17:27:51;;;;;;;;;;;3.30;99.90;;;;;;8388366;28;19936;-71
2022/11/19 17:31:53;;;;;;;;;;;3.30;99.90;;;;;;8389595;28;19924;-71
2022/11/19 17:35:55;;;;;;;;;;;3.30;99.90;;;;;;8378386;28;20011;-71
2022/11/19 17:39:57;;;;;;;;;;;3.20;99.90;;;;;;8392008;28;19963;-71
2022/11/19 17:48:33;;;;;;;;;;;3.00;99.90;;;;;;8371332;28;19946;-71
2022/11/19 17:52:34;;;;;;;;;;;3.00;99.90;;;;;;8391697;28;20023;-71
2022/11/19 17:56:36;;;;;;;;;;;3.00;99.90;;;;;;8387863;28;19974;-71
2022/11/19 18:00:37;;;;;;;;;;;2.90;99.90;;;;;;8389033;28;19960;-71
2022/11/19 18:04:40;;;;;;;;;;;2.80;99.90;;;;;;8395537;28;19929;-71
2022/11/19 18:08:42;;;;;;;;;;;2.70;99.90;;;;;;8401795;28;19925;-71
2022/11/19 18:12:44;;;;;;;;;;;2.70;99.90;;;;;;8395288;28;19974;-71
2022/11/19 18:16:45;;;;;;;;;;;2.60;99.90;;;;;;8399498;28;20035;-71
2022/11/19 18:20:48;;;;;;;;;;;2.40;99.90;;;;;;8380171;28;19962;-71
2022/11/19 18:24:50;;;;;;;;;;;2.40;99.90;;;;;;8388523;28;20011;-71
2022/11/19 18:28:52;;;;;;;;;;;2.40;99.90;;;;;;8377580;28;19928;-71
2022/11/19 18:32:54;;;;;;;;;;;2.40;99.90;;;;;;8372942;28;20015;-71
2022/11/19 18:36:55;;;;;;;;;;;2.30;99.90;;;;;;8384728;28;19925;-71
2022/11/19 18:40:57;;;;;;;;;;;2.20;99.90;;;;;;8387653;28;19956;-71
2022/11/19 18:44:58;;;;;;;;;;;2.20;99.90;;;;;;8365815;28;19939;-71
2022/11/19 18:49:00;;;;;;;;;;;2.20;99.90;;;;;;8389792;28;19971;-71
2022/11/19 18:53:02;;;;;;;;;;;2.20;99.90;;;;;;8377140;28;20643;-71
2022/11/19 18:57:03;;;;;;;;;;;2.20;99.90;;;;;;8372212;28;19924;-71
2022/11/19 19:01:05;;;;;;;;;;;2.10;99.90;;;;;;8394108;28;20031;-73
2022/11/19 19:05:07;;;;;;;;;;;2.00;99.90;;;;;;8378637;28;19932;-71
2022/11/19 19:09:10;;;;;;;;;;;1.90;99.90;;;;;;8374431;28;20398;-71
2022/11/19 19:13:11;;;;;;;;;;;1.90;99.90;;;;;;8387263;28;19934;-71
2022/11/19 19:17:14;;;;;;;;;;;1.80;99.90;;;;;;8389917;28;20015;-71
2022/11/19 19:21:17;;;;;;;;;;;1.80;99.90;;;;;;8403618;28;19935;-70
2022/11/19 19:25:18;;;;;;;;;;;1.70;99.90;;;;;;8391135;28;19924;-71
2022/11/19 19:29:20;;;;;;;;;;;1.70;99.90;;;;;;8387000;28;20051;-71
2022/11/19 19:33:22;;;;;;;;;;;1.60;99.90;;;;;;8389141;28;20353;-71
2022/11/19 19:37:24;;;;;;;;;;;1.60;99.90;;;;;;8381029;28;19932;-70
2022/11/19 19:41:26;;;;;;;;;;;1.50;99.90;;;;;;8378414;28;19943;-71
2022/11/19 19:45:27;;;;;;;;;;;1.40;99.90;;;;;;8379773;28;19931;-70
2022/11/19 19:49:29;;;;;;;;;;;1.40;99.90;;;;;;8374832;28;19939;-70
2022/11/19 19:53:40;;;;;;;;;;;1.30;99.90;;;;;;8381827;28;20022;-71
2022/11/19 19:57:42;;;;;;;;;;;1.30;99.90;;;;;;8386414;28;19986;-70
2022/11/19 20:01:49;;;;;;;;;;;1.30;99.90;;;;;;8374877;28;20023;-70
2022/11/19 20:05:51;;;;;;;;;;;1.20;99.90;;;;;;8388947;28;20440;-71
2022/11/19 20:09:52;;;;;;;;;;;1.20;99.90;;;;;;8394924;28;19932;-71
2022/11/19 20:13:55;;;;;;;;;;;1.10;99.90;;;;;;8386066;28;19924;-70
2022/11/19 20:17:56;;;;;;;;;;;1.00;99.90;;;;;;8400123;28;20087;-70
2022/11/19 20:21:58;;;;;;;;;;;0.90;99.90;;;;;;8391638;28;19971;-70
2022/11/19 20:26:01;;;;;;;;;;;0.90;99.90;;;;;;8393853;28;19935;-70
2022/11/19 20:30:03;;;;;;;;;;;0.90;99.90;;;;;;8386762;28;20067;-70
2022/11/19 20:34:06;;;;;;;;;;;0.90;99.90;;;;;;8388623;28;19939;-70
2022/11/19 20:38:08;;;;;;;;;;;0.90;99.90;;;;;;8388711;28;19982;-71
2022/11/19 20:46:31;;;;;;;;;;;0.80;99.90;;;;;;8404372;28;19932;-70
2022/11/19 20:50:33;;;;;;;;;;;0.80;99.90;;;;;;8393773;28;19924;-70
2022/11/19 20:54:35;;;;;;;;;;;0.70;99.90;;;;;;8407093;28;20011;-71
2022/11/19 20:58:36;;;;;;;;;;;0.70;99.90;;;;;;8399754;28;19925;-70
2022/11/19 21:02:38;;;;;;;;;;;0.70;99.90;;;;;;8391052;28;19932;-70
2022/11/19 21:06:39;;;;;;;;;;;0.60;99.90;;;;;;8379012;28;19966;-71
2022/11/19 21:10:41;;;;;;;;;;;0.60;99.90;;;;;;8390078;28;19951;-70
2022/11/19 21:14:43;;;;;;;;;;;0.50;99.90;;;;;;8372082;28;19931;-70
2022/11/19 21:18:45;;;;;;;;;;;0.50;99.90;;;;;;8389102;28;19936;-70
2022/11/19 21:22:47;;;;;;;;;;;0.50;99.90;;;;;;8383831;28;19932;-70
2022/11/19 21:26:48;;;;;;;;;;;0.50;99.90;;;;;;8382164;28;19928;-70
2022/11/19 21:30:50;;;;;;;;;;;0.50;99.90;;;;;;8387847;28;19935;-70
2022/11/19 21:34:52;;;;;;;;;;;0.50;99.90;;;;;;8391773;28;19971;-70
2022/11/19 21:38:54;;;;;;;;;;;0.40;99.90;;;;;;8389396;28;20264;-70
2022/11/19 21:42:55;;;;;;;;;;;0.40;99.90;;;;;;8357358;28;19942;-70
2022/11/19 21:46:57;;;;;;;;;;;0.40;99.90;;;;;;8355048;28;19925;-70
2022/11/19 21:50:58;;;;;;;;;;;0.30;99.90;;;;;;8389916;28;19951;-70
2022/11/19 21:55:00;;;;;;;;;;;0.20;99.90;;;;;;8390906;28;19959;-70
2022/11/19 21:59:02;;;;;;;;;;;0.10;99.90;;;;;;8351749;28;20018;-70
2022/11/19 22:03:04;;;;;;;;;;;0.10;99.90;;;;;;8364528;28;19960;-70
2022/11/19 22:07:06;;;;;;;;;;;0.00;99.90;;;;;;8373482;28;19940;-70
2022/11/19 22:15:28;;;;;;;;;;;-0.10;99.90;;;;;;8378761;28;19924;-70
2022/11/19 22:19:30;;;;;;;;;;;-0.20;99.90;;;;;;8369233;28;19940;-70
2022/11/19 22:23:32;;;;;;;;;;;-0.20;99.90;;;;;;8377373;28;20239;-70
2022/11/19 22:27:33;;;;;;;;;;;-0.30;99.90;;;;;;8390463;28;19925;-70
2022/11/19 22:31:35;;;;;;;;;;;-0.30;99.90;;;;;;8391759;28;19978;-70
2022/11/19 22:35:37;;;;;;;;;;;-0.40;99.90;;;;;;8383930;28;20023;-70
2022/11/19 22:39:38;;;;;;;;;;;-0.40;99.90;;;;;;8383176;28;20337;-70
2022/11/19 22:43:40;;;;;;;;;;;-0.40;99.90;;;;;;8421427;28;19924;-70
2022/11/19 22:47:42;;;;;;;;;;;-0.50;99.90;;;;;;8416688;28;20268;-70
2022/11/19 22:51:43;;;;;;;;;;;-0.50;99.90;;;;;;8416847;28;19931;-70
2022/11/19 22:55:45;;;;;;;;;;;-0.60;99.90;;;;;;8405100;28;20386;-70
2022/11/19 22:59:47;;;;;;;;;;;-0.60;99.90;;;;;;8421892;28;19957;-70
2022/11/19 23:03:49;;;;;;;;;;;-0.70;99.90;;;;;;8425802;28;20380;-70
2022/11/19 23:07:50;;;;;;;;;;;-0.70;99.90;;;;;;8409344;28;19925;-69
2022/11/19 23:16:13;;;;;;;;;;;-0.80;99.90;;;;;;8421473;28;20009;-69
2022/11/19 23:20:15;;;;;;;;;;;-0.80;99.90;;;;;;8402803;28;19956;-69
2022/11/19 23:24:17;;;;;;;;;;;-0.90;99.90;;;;;;8419745;28;20019;-69
2022/11/19 23:28:18;;;;;;;;;;;-0.90;99.90;;;;;;8393549;28;19930;-69
2022/11/19 23:32:20;;;;;;;;;;;-0.90;99.90;;;;;;8423605;28;19983;-69
2022/11/19 23:36:23;;;;;;;;;;;-1.00;99.90;;;;;;8416182;28;19967;-70
2022/11/19 23:40:25;;;;;;;;;;;-1.00;99.90;;;;;;8408989;28;20070;-69
2022/11/19 23:44:26;;;;;;;;;;;-1.00;99.90;;;;;;8396979;28;19932;-69
2022/11/19 23:48:28;;;;;;;;;;;-1.10;99.90;;;;;;8409745;28;19932;-69
2022/11/19 23:52:30;;;;;;;;;;;-1.10;99.90;;;;;;8414038;28;19946;-69
2022/11/19 23:56:33;;;;;;;;;;;-1.20;99.90;;;;;;8390058;28;19928;-69
